createdAt,value
2018-09-09T00:00:08.301Z,29.90
2018-09-09T00:01:08.276Z,20.90
2018-09-09T00:02:08.232Z,24.20
2018-09-09T00:03:08.204Z,24.30
2018-09-09T00:04:08.176Z,31.90
2018-09-09T00:05:08.170Z,33.40
2018-09-09T00:06:08.131Z,24.60
2018-09-09T00:07:08.306Z,29.00
2018-09-09T00:08:08.051Z,22.90
2018-09-09T00:09:08.039Z,40.70
2018-09-09T00:10:07.995Z,30.50
2018-09-09T00:11:07.997Z,24.90
2018-09-09T00:12:08.251Z,24.70
2018-09-09T00:13:07.924Z,25.50
2018-09-09T00:14:08.078Z,29.40
2018-09-09T00:15:07.846Z,33.00
2018-09-09T00:30:15.349Z,37.80
2018-09-09T00:31:15.132Z,42.60
2018-09-09T00:32:15.090Z,36.30
2018-09-09T00:33:15.093Z,45.40
2018-09-09T00:34:15.212Z,35.50
2018-09-09T00:35:14.973Z,46.80
2018-09-09T00:36:15.098Z,30.60
2018-09-09T00:37:14.914Z,28.50
2018-09-09T00:38:16.088Z,27.90
2018-09-09T00:39:14.848Z,29.20
2018-09-09T00:40:14.815Z,32.40
2018-09-09T00:41:14.789Z,33.70
2018-09-09T00:42:15.104Z,38.70
2018-09-09T00:43:14.700Z,40.70
2018-09-09T00:44:14.679Z,30.10
2018-09-09T00:45:14.641Z,34.90
2018-09-09T00:46:14.606Z,39.50
2018-09-09T00:47:14.574Z,29.40
2018-09-09T00:48:14.554Z,29.30
2018-09-09T00:49:14.525Z,30.50
2018-09-09T00:50:14.483Z,21.50
2018-09-09T00:51:14.460Z,33.20
2018-09-09T00:52:14.415Z,29.00
2018-09-09T00:53:14.379Z,20.00
2018-09-09T00:54:14.354Z,47.10
2018-09-09T00:55:14.329Z,21.50
2018-09-09T00:56:14.300Z,23.90
2018-09-09T00:57:14.282Z,26.80
2018-09-09T00:58:14.226Z,32.60
2018-09-09T00:59:14.196Z,20.80
2018-09-09T01:00:14.159Z,15.60
2018-09-09T01:01:14.148Z,23.50
2018-09-09T01:02:14.088Z,27.90
2018-09-09T01:03:14.073Z,19.20
2018-09-09T01:04:14.025Z,26.00
2018-09-09T01:05:14.008Z,26.90
2018-09-09T01:06:13.978Z,20.20
2018-09-09T01:07:13.951Z,20.30
2018-09-09T01:08:13.926Z,26.50
2018-09-09T01:09:14.123Z,23.80
2018-09-09T01:10:13.832Z,37.20
2018-09-09T01:11:13.804Z,17.80
2018-09-09T01:12:13.787Z,23.90
2018-09-09T01:13:13.810Z,20.40
2018-09-09T01:14:13.711Z,23.70
2018-09-09T01:16:13.642Z,22.60
2018-09-09T01:17:13.839Z,21.40
2018-09-09T01:18:13.581Z,16.70
2018-09-09T01:19:13.543Z,15.40
2018-09-09T01:20:13.555Z,53.40
2018-09-09T01:21:13.645Z,19.90
2018-09-09T01:22:13.452Z,21.80
2018-09-09T01:23:13.423Z,22.20
2018-09-09T01:24:13.405Z,20.70
2018-09-09T01:25:13.371Z,15.30
2018-09-09T01:26:13.337Z,18.10
2018-09-09T01:27:13.302Z,12.50
2018-09-09T01:28:13.266Z,17.50
2018-09-09T01:29:13.468Z,22.10
2018-09-09T01:30:13.189Z,19.60
2018-09-09T01:31:13.176Z,20.50
2018-09-09T01:32:13.133Z,27.50
2018-09-09T01:33:13.120Z,22.90
2018-09-09T01:34:13.070Z,23.20
2018-09-09T01:35:13.070Z,24.20
2018-09-09T01:36:13.098Z,19.40
2018-09-09T01:37:13.140Z,26.10
2018-09-09T01:38:12.936Z,22.10
2018-09-09T01:39:12.947Z,28.40
2018-09-09T01:40:12.912Z,17.20
2018-09-09T01:41:12.860Z,12.10
2018-09-09T01:42:12.841Z,18.30
2018-09-09T01:43:12.926Z,31.20
2018-09-09T01:44:12.777Z,16.60
2018-09-09T01:45:12.737Z,19.20
2018-09-09T01:46:12.684Z,21.40
2018-09-09T01:47:12.651Z,16.60
2018-09-09T01:48:12.617Z,20.90
2018-09-09T01:49:12.595Z,16.90
2018-09-09T01:50:12.565Z,20.30
2018-09-09T01:51:12.535Z,15.80
2018-09-09T01:52:12.500Z,13.90
2018-09-09T01:53:12.466Z,18.10
2018-09-09T01:54:12.598Z,18.10
2018-09-09T01:55:12.411Z,20.20
2018-09-09T01:56:12.373Z,21.80
2018-09-09T01:57:12.334Z,17.30
2018-09-09T01:58:12.303Z,15.70
2018-09-09T01:59:12.295Z,14.50
2018-09-09T02:00:12.269Z,18.50
2018-09-09T02:01:12.204Z,11.20
2018-09-09T02:02:12.180Z,24.30
2018-09-09T02:03:12.135Z,20.10
2018-09-09T02:04:12.136Z,20.90
2018-09-09T02:05:12.101Z,22.20
2018-09-09T02:06:12.041Z,15.90
2018-09-09T02:07:12.043Z,19.20
2018-09-09T02:08:11.982Z,15.70
2018-09-09T02:09:11.987Z,14.10
2018-09-09T02:11:11.883Z,15.30
2018-09-09T02:12:11.871Z,13.00
2018-09-09T02:13:11.827Z,21.90
2018-09-09T02:14:11.815Z,23.20
2018-09-09T02:15:11.753Z,14.80
2018-09-09T02:16:11.732Z,13.10
2018-09-09T02:17:11.701Z,17.30
2018-09-09T02:18:11.790Z,20.20
2018-09-09T02:19:11.625Z,12.90
2018-09-09T02:20:11.586Z,18.50
2018-09-09T02:21:11.860Z,13.40
2018-09-09T02:22:11.549Z,19.00
2018-09-09T02:23:11.527Z,12.40
2018-09-09T02:24:11.496Z,19.70
2018-09-09T02:25:11.457Z,20.10
2018-09-09T02:26:11.654Z,10.70
2018-09-09T02:27:11.376Z,22.40
2018-09-09T02:28:11.374Z,35.10
2018-09-09T02:29:11.302Z,22.40
2018-09-09T02:30:11.326Z,21.00
2018-09-09T02:31:11.291Z,21.10
2018-09-09T02:32:11.243Z,23.30
2018-09-09T02:33:11.211Z,26.10
2018-09-09T02:34:11.191Z,30.60
2018-09-09T02:35:11.099Z,18.70
2018-09-09T02:36:11.077Z,15.50
2018-09-09T02:37:11.062Z,14.00
2018-09-09T02:38:11.032Z,21.00
2018-09-09T02:39:10.970Z,27.30
2018-09-09T02:40:10.977Z,17.50
2018-09-09T02:41:10.954Z,15.40
2018-09-09T02:42:10.906Z,17.50
2018-09-09T02:43:10.875Z,20.80
2018-09-09T02:44:10.900Z,13.80
2018-09-09T02:45:10.832Z,13.90
2018-09-09T02:47:10.710Z,16.50
2018-09-09T02:48:10.716Z,10.30
2018-09-09T02:49:10.694Z,16.30
2018-09-09T02:50:10.648Z,16.60
2018-09-09T02:51:10.595Z,20.00
2018-09-09T02:52:10.753Z,18.50
2018-09-09T02:53:10.535Z,21.00
2018-09-09T02:54:10.485Z,23.40
2018-09-09T02:55:10.487Z,14.50
2018-09-09T02:56:10.416Z,14.30
2018-09-09T02:57:10.429Z,24.50
2018-09-09T02:58:10.370Z,14.80
2018-09-09T02:59:10.374Z,26.70
2018-09-09T03:00:10.346Z,20.70
2018-09-09T03:01:10.286Z,15.20
2018-09-09T03:02:10.231Z,12.00
2018-09-09T03:03:10.208Z,18.20
2018-09-09T03:04:10.164Z,13.30
2018-09-09T03:05:10.153Z,27.20
2018-09-09T03:06:10.092Z,21.10
2018-09-09T03:07:10.066Z,18.90
2018-09-09T03:08:10.025Z,14.10
2018-09-09T03:09:09.992Z,19.70
2018-09-09T03:10:09.974Z,16.50
2018-09-09T03:11:09.928Z,15.80
2018-09-09T03:12:09.924Z,22.00
2018-09-09T03:13:09.900Z,16.20
2018-09-09T03:14:09.829Z,15.60
2018-09-09T03:15:09.801Z,16.00
2018-09-09T03:16:09.770Z,12.90
2018-09-09T03:17:09.768Z,12.70
2018-09-09T03:18:09.796Z,13.60
2018-09-09T03:19:09.667Z,14.30
2018-09-09T03:20:09.635Z,11.10
2018-09-09T03:21:09.604Z,20.00
2018-09-09T03:22:09.584Z,20.10
2018-09-09T03:23:09.537Z,15.10
2018-09-09T03:24:09.870Z,17.00
2018-09-09T03:25:09.484Z,21.20
2018-09-09T03:26:09.440Z,16.20
2018-09-09T03:27:09.448Z,17.60
2018-09-09T03:28:09.373Z,17.60
2018-09-09T03:29:09.340Z,13.70
2018-09-09T03:30:09.323Z,17.60
2018-09-09T03:31:09.286Z,14.30
2018-09-09T03:32:09.247Z,16.80
2018-09-09T03:33:09.215Z,18.50
2018-09-09T03:34:09.191Z,18.00
2018-09-09T03:35:09.140Z,16.20
2018-09-09T03:36:09.111Z,15.00
2018-09-09T03:37:09.077Z,18.50
2018-09-09T03:38:09.049Z,16.00
2018-09-09T03:39:09.018Z,18.30
2018-09-09T03:40:09.152Z,20.10
2018-09-09T03:41:08.957Z,12.90
2018-09-09T03:42:08.950Z,22.30
2018-09-09T03:43:08.884Z,20.70
2018-09-09T03:44:08.862Z,18.80
2018-09-09T03:45:08.821Z,15.60
2018-09-09T03:46:08.928Z,11.30
2018-09-09T03:47:08.750Z,17.20
2018-09-09T03:48:08.714Z,23.30
2018-09-09T03:49:08.693Z,17.70
2018-09-09T03:50:08.664Z,21.90
2018-09-09T03:51:08.617Z,12.00
2018-09-09T03:52:08.582Z,17.10
2018-09-09T03:53:08.554Z,14.30
2018-09-09T03:54:08.575Z,18.50
2018-09-09T03:55:08.488Z,12.20
2018-09-09T03:56:08.453Z,15.60
2018-09-09T03:57:08.414Z,18.40
2018-09-09T03:58:08.378Z,23.00
2018-09-09T03:59:08.354Z,11.60
2018-09-09T04:00:08.317Z,14.00
2018-09-09T04:01:08.304Z,15.60
2018-09-09T04:02:08.249Z,15.50
2018-09-09T04:03:08.221Z,23.20
2018-09-09T04:04:08.196Z,13.10
2018-09-09T04:05:08.150Z,15.60
2018-09-09T04:06:08.135Z,23.30
2018-09-09T04:07:08.086Z,22.00
2018-09-09T04:08:08.262Z,14.50
2018-09-09T04:09:08.026Z,25.30
2018-09-09T04:10:08.043Z,21.30
2018-09-09T04:11:07.951Z,16.00
2018-09-09T04:12:07.923Z,19.30
2018-09-09T04:13:07.883Z,16.40
2018-09-09T04:14:07.952Z,19.00
2018-09-09T04:15:07.830Z,17.90
2018-09-09T04:16:07.801Z,15.90
2018-09-09T04:17:07.753Z,18.10
2018-09-09T04:18:07.717Z,14.30
2018-09-09T04:19:07.704Z,21.10
2018-09-09T04:20:07.665Z,17.40
2018-09-09T04:21:07.625Z,14.00
2018-09-09T04:22:07.588Z,20.70
2018-09-09T04:23:07.555Z,17.40
2018-09-09T04:24:07.520Z,11.20
2018-09-09T04:25:07.741Z,17.90
2018-09-09T04:26:07.452Z,19.10
2018-09-09T04:27:07.424Z,11.50
2018-09-09T04:28:07.395Z,19.90
2018-09-09T04:29:07.359Z,13.90
2018-09-09T04:30:07.324Z,15.40
2018-09-09T04:31:07.293Z,16.90
2018-09-09T04:32:07.258Z,18.30
2018-09-09T04:33:07.226Z,18.20
2018-09-09T04:34:07.190Z,11.70
2018-09-09T04:35:07.162Z,22.00
2018-09-09T04:36:07.130Z,13.40
2018-09-09T04:37:07.090Z,16.40
2018-09-09T04:38:07.059Z,17.20
2018-09-09T04:39:07.028Z,20.30
2018-09-09T04:40:06.990Z,18.50
2018-09-09T04:41:07.214Z,13.00
2018-09-09T04:42:06.927Z,17.00
2018-09-09T04:43:06.894Z,10.50
2018-09-09T04:44:06.864Z,10.90
2018-09-09T04:45:06.822Z,13.60
2018-09-09T04:46:06.787Z,17.90
2018-09-09T04:47:06.909Z,13.20
2018-09-09T04:48:06.734Z,10.40
2018-09-09T04:49:06.694Z,19.10
2018-09-09T04:50:06.655Z,11.90
2018-09-09T04:51:06.621Z,11.80
2018-09-09T04:52:06.589Z,13.40
2018-09-09T04:53:06.564Z,15.90
2018-09-09T04:54:06.535Z,20.60
2018-09-09T04:55:06.504Z,14.40
2018-09-09T04:56:06.478Z,15.20
2018-09-09T04:57:06.427Z,15.90
2018-09-09T04:58:06.540Z,12.00
2018-09-09T04:59:06.356Z,17.70
2018-09-09T05:00:06.333Z,16.80
2018-09-09T05:01:06.299Z,18.10
2018-09-09T05:02:06.261Z,12.40
2018-09-09T05:03:06.226Z,14.80
2018-09-09T05:04:06.185Z,18.40
2018-09-09T05:05:06.165Z,11.30
2018-09-09T05:06:06.124Z,23.50
2018-09-09T05:07:06.088Z,17.60
2018-09-09T05:08:06.075Z,13.30
2018-09-09T05:09:06.123Z,20.00
2018-09-09T05:10:05.985Z,24.60
2018-09-09T05:11:05.991Z,15.40
2018-09-09T05:12:05.928Z,19.00
2018-09-09T05:13:05.890Z,19.40
2018-09-09T05:14:05.859Z,19.20
2018-09-09T05:15:06.125Z,18.10
2018-09-09T05:16:05.784Z,13.10
2018-09-09T05:17:05.752Z,23.60
2018-09-09T05:18:05.729Z,19.10
2018-09-09T05:19:05.684Z,20.60
2018-09-09T05:20:05.652Z,14.30
2018-09-09T05:21:05.625Z,21.70
2018-09-09T05:22:05.639Z,21.90
2018-09-09T05:23:05.550Z,27.20
2018-09-09T05:24:05.518Z,21.70
2018-09-09T05:25:05.484Z,23.50
2018-09-09T05:26:05.704Z,19.90
2018-09-09T05:27:05.414Z,16.80
2018-09-09T05:28:05.380Z,20.90
2018-09-09T05:29:05.350Z,21.90
2018-09-09T05:30:05.313Z,17.70
2018-09-09T05:31:05.287Z,15.50
2018-09-09T05:32:05.261Z,14.40
2018-09-09T05:33:05.220Z,15.60
2018-09-09T05:34:05.178Z,16.20
2018-09-09T05:35:05.144Z,19.60
2018-09-09T05:36:05.112Z,16.00
2018-09-09T05:37:05.287Z,12.30
2018-09-09T05:38:05.046Z,18.20
2018-09-09T05:39:05.012Z,14.90
2018-09-09T05:40:04.975Z,16.20
2018-09-09T05:41:04.950Z,12.70
2018-09-09T05:42:04.910Z,13.80
2018-09-09T05:43:05.072Z,14.30
2018-09-09T05:44:04.842Z,20.20
2018-09-09T05:45:04.811Z,16.70
2018-09-09T05:46:04.773Z,17.60
2018-09-09T05:47:04.741Z,10.70
2018-09-09T05:48:04.706Z,16.00
2018-09-09T05:49:04.722Z,18.90
2018-09-09T05:50:04.639Z,12.80
2018-09-09T05:51:04.602Z,15.10
2018-09-09T05:52:04.575Z,18.20
2018-09-09T05:53:04.543Z,13.10
2018-09-09T05:54:04.500Z,14.00
2018-09-09T05:55:04.466Z,13.50
2018-09-09T05:56:04.437Z,11.80
2018-09-09T05:57:04.404Z,12.10
2018-09-09T05:58:04.366Z,13.10
2018-09-09T05:59:04.330Z,13.00
2018-09-09T06:00:04.305Z,11.90
2018-09-09T06:01:04.271Z,15.70
2018-09-09T06:02:04.234Z,13.80
2018-09-09T06:03:04.195Z,12.10
2018-09-09T06:04:04.164Z,12.30
2018-09-09T06:05:04.129Z,10.90
2018-09-09T06:06:04.113Z,16.10
2018-09-09T06:07:04.069Z,12.30
2018-09-09T06:08:04.036Z,11.20
2018-09-09T06:09:04.222Z,16.50
2018-09-09T06:10:03.964Z,11.70
2018-09-09T06:11:03.926Z,12.40
2018-09-09T06:12:03.900Z,7.00
2018-09-09T06:13:03.862Z,10.30
2018-09-09T06:14:03.828Z,12.70
2018-09-09T06:15:03.788Z,18.80
2018-09-09T06:16:03.758Z,15.10
2018-09-09T06:17:03.723Z,8.40
2018-09-09T06:18:03.689Z,9.80
2018-09-09T06:19:03.657Z,11.60
2018-09-09T06:20:03.625Z,19.00
2018-09-09T06:21:03.601Z,14.60
2018-09-09T06:22:03.556Z,12.80
2018-09-09T06:23:03.516Z,12.30
2018-09-09T06:24:03.486Z,19.20
2018-09-09T06:25:03.452Z,18.80
2018-09-09T06:26:03.512Z,12.90
2018-09-09T06:27:03.384Z,12.00
2018-09-09T06:28:03.356Z,13.70
2018-09-09T06:29:03.316Z,15.60
2018-09-09T06:30:03.290Z,18.90
2018-09-09T06:31:03.250Z,13.20
2018-09-09T06:32:03.218Z,17.50
2018-09-09T06:33:03.262Z,15.20
2018-09-09T06:34:03.148Z,11.20
2018-09-09T06:35:03.112Z,17.90
2018-09-09T06:36:03.080Z,14.50
2018-09-09T06:37:03.188Z,14.50
2018-09-09T06:38:03.009Z,16.90
2018-09-09T06:39:03.012Z,21.20
2018-09-09T06:40:02.940Z,21.40
2018-09-09T06:41:02.907Z,21.50
2018-09-09T06:42:02.869Z,22.80
2018-09-09T06:43:02.941Z,20.50
2018-09-09T06:44:02.803Z,20.70
2018-09-09T06:45:02.778Z,19.90
2018-09-09T06:46:02.731Z,27.60
2018-09-09T06:47:02.698Z,22.50
2018-09-09T06:48:02.664Z,22.80
2018-09-09T06:49:02.639Z,23.40
2018-09-09T06:50:02.594Z,21.90
2018-09-09T06:51:02.571Z,27.90
2018-09-09T06:52:02.589Z,25.70
2018-09-09T06:53:02.500Z,27.50
2018-09-09T06:54:02.615Z,25.00
2018-09-09T06:55:02.458Z,17.20
2018-09-09T06:56:02.389Z,21.30
2018-09-09T06:57:02.367Z,21.80
2018-09-09T06:58:02.323Z,16.50
2018-09-09T06:59:02.291Z,19.70
2018-09-09T07:00:02.252Z,15.00
2018-09-09T07:01:02.221Z,19.80
2018-09-09T07:02:02.191Z,16.30
2018-09-09T07:03:02.150Z,14.50
2018-09-09T07:04:02.120Z,16.80
2018-09-09T07:05:02.285Z,15.20
2018-09-09T07:06:02.049Z,16.80
2018-09-09T07:07:02.157Z,22.50
2018-09-09T07:08:01.981Z,16.70
2018-09-09T07:09:01.948Z,20.00
2018-09-09T07:10:01.933Z,16.00
2018-09-09T07:11:02.198Z,15.50
2018-09-09T07:12:01.909Z,14.10
2018-09-09T07:13:01.810Z,15.30
2018-09-09T07:14:01.780Z,14.30
2018-09-09T07:15:01.751Z,14.50
2018-09-09T07:16:01.712Z,21.40
2018-09-09T07:17:01.680Z,13.40
2018-09-09T07:18:01.640Z,13.00
2018-09-09T07:19:01.658Z,15.70
2018-09-09T07:20:01.571Z,19.70
2018-09-09T07:21:01.540Z,11.30
2018-09-09T07:22:01.502Z,14.20
2018-09-09T07:23:01.472Z,17.50
2018-09-09T07:24:01.437Z,16.40
2018-09-09T07:25:01.400Z,14.20
2018-09-09T07:26:01.361Z,14.40
2018-09-09T07:27:01.330Z,12.40
2018-09-09T07:28:01.294Z,16.70
2018-09-09T07:29:01.264Z,11.50
2018-09-09T07:30:01.226Z,19.80
2018-09-09T07:31:01.193Z,15.00
2018-09-09T07:32:01.159Z,16.50
2018-09-09T07:33:01.327Z,20.80
2018-09-09T07:34:01.158Z,17.90
2018-09-09T07:35:01.059Z,22.40
2018-09-09T07:36:01.021Z,25.30
2018-09-09T07:37:00.989Z,24.70
2018-09-09T07:38:00.949Z,22.50
2018-09-09T07:39:01.118Z,21.00
2018-09-09T07:40:00.890Z,15.50
2018-09-09T07:41:00.850Z,24.70
2018-09-09T07:42:00.814Z,21.50
2018-09-09T07:43:00.777Z,22.50
2018-09-09T07:44:00.754Z,22.90
2018-09-09T07:45:00.717Z,26.70
2018-09-09T07:46:00.675Z,23.50
2018-09-09T07:47:00.683Z,21.70
2018-09-09T07:48:00.624Z,34.00
2018-09-09T07:49:00.581Z,26.60
2018-09-09T07:50:00.787Z,24.70
2018-09-09T07:51:00.503Z,26.30
2018-09-09T07:52:00.466Z,25.20
2018-09-09T07:53:00.433Z,24.70
2018-09-09T07:54:00.400Z,20.50
2018-09-09T07:55:00.371Z,20.00
2018-09-09T07:56:00.332Z,24.10
2018-09-09T07:57:00.301Z,21.50
2018-09-09T07:58:00.260Z,19.80
2018-09-09T07:59:00.237Z,22.60
2018-09-09T08:00:00.205Z,19.50
2018-09-09T08:01:00.173Z,20.50
2018-09-09T08:02:00.131Z,20.80
2018-09-09T08:03:00.090Z,20.50
2018-09-09T08:04:00.066Z,25.70
2018-09-09T08:05:00.022Z,22.30
2018-09-09T08:05:59.987Z,23.80
2018-09-09T08:06:59.955Z,18.80
2018-09-09T08:07:59.923Z,16.60
2018-09-09T08:08:59.884Z,19.30
2018-09-09T08:09:59.847Z,17.20
2018-09-09T08:10:59.817Z,19.40
2018-09-09T08:11:59.821Z,14.60
2018-09-09T08:12:59.745Z,16.00
2018-09-09T08:13:59.725Z,18.80
2018-09-09T08:14:59.681Z,21.80
2018-09-09T08:15:59.646Z,19.90
2018-09-09T08:16:59.622Z,13.80
2018-09-09T08:17:59.570Z,22.40
2018-09-09T08:18:59.540Z,17.20
2018-09-09T08:19:59.502Z,19.00
2018-09-09T08:20:59.469Z,22.50
2018-09-09T08:21:59.641Z,16.40
2018-09-09T08:22:59.398Z,16.60
2018-09-09T08:23:59.371Z,15.70
2018-09-09T08:24:59.340Z,20.60
2018-09-09T08:25:59.294Z,15.40
2018-09-09T08:26:59.272Z,16.30
2018-09-09T08:27:59.229Z,18.20
2018-09-09T08:28:59.195Z,13.80
2018-09-09T08:29:59.156Z,17.10
2018-09-09T08:30:59.120Z,17.20
2018-09-09T08:31:59.088Z,16.00
2018-09-09T08:32:59.250Z,17.00
2018-09-09T08:33:59.015Z,16.20
2018-09-09T08:34:58.984Z,17.40
2018-09-09T08:35:58.982Z,15.30
2018-09-09T08:36:58.913Z,15.30
2018-09-09T08:37:58.887Z,16.00
2018-09-09T08:38:58.840Z,15.10
2018-09-09T08:39:58.809Z,15.60
2018-09-09T08:40:58.771Z,16.90
2018-09-09T08:41:58.736Z,16.00
2018-09-09T08:42:58.702Z,15.00
2018-09-09T08:43:58.665Z,16.50
2018-09-09T08:44:58.633Z,15.50
2018-09-09T08:45:58.599Z,12.80
2018-09-09T08:46:58.561Z,17.90
2018-09-09T08:47:58.532Z,12.30
2018-09-09T08:48:58.493Z,13.50
2018-09-09T08:49:58.462Z,16.90
2018-09-09T08:50:58.421Z,14.20
2018-09-09T08:51:58.517Z,19.40
2018-09-09T08:52:58.354Z,17.50
2018-09-09T08:53:58.324Z,17.30
2018-09-09T08:54:58.281Z,18.00
2018-09-09T08:55:58.249Z,23.50
2018-09-09T08:56:58.216Z,26.00
2018-09-09T08:57:58.185Z,16.60
2018-09-09T08:58:58.141Z,19.70
2018-09-09T08:59:58.309Z,17.30
2018-09-09T09:00:58.071Z,17.50
2018-09-09T09:01:58.037Z,25.80
2018-09-09T09:02:58.002Z,17.00
2018-09-09T09:03:57.971Z,16.50
2018-09-09T09:04:57.932Z,14.40
2018-09-09T09:05:57.999Z,14.30
2018-09-09T09:06:57.866Z,15.50
2018-09-09T09:07:57.921Z,17.80
2018-09-09T09:08:57.793Z,17.70
2018-09-09T09:09:57.761Z,25.00
2018-09-09T09:10:57.725Z,19.10
2018-09-09T09:11:57.688Z,15.50
2018-09-09T09:12:57.652Z,20.80
2018-09-09T09:13:57.618Z,21.50
2018-09-09T09:14:57.585Z,17.50
2018-09-09T09:15:57.546Z,15.70
2018-09-09T09:16:57.816Z,23.20
2018-09-09T09:17:57.477Z,21.10
2018-09-09T09:18:57.440Z,19.70
2018-09-09T09:19:57.413Z,22.20
2018-09-09T09:20:57.374Z,17.10
2018-09-09T09:21:57.338Z,15.40
2018-09-09T09:22:57.299Z,21.00
2018-09-09T09:23:57.267Z,17.50
2018-09-09T09:24:57.230Z,18.90
2018-09-09T09:25:57.195Z,19.20
2018-09-09T09:26:57.161Z,18.00
2018-09-09T09:27:57.483Z,18.70
2018-09-09T09:28:57.091Z,22.40
2018-09-09T09:29:57.056Z,20.30
2018-09-09T09:30:57.023Z,20.60
2018-09-09T09:31:56.983Z,19.30
2018-09-09T09:32:56.950Z,17.80
2018-09-09T09:33:57.015Z,30.10
2018-09-09T09:34:56.881Z,18.50
2018-09-09T09:35:56.845Z,18.00
2018-09-09T09:36:56.833Z,23.70
2018-09-09T09:37:56.776Z,19.10
2018-09-09T09:38:56.743Z,19.60
2018-09-09T09:39:56.705Z,18.10
2018-09-09T09:40:56.680Z,18.90
2018-09-09T09:41:56.648Z,22.60
2018-09-09T09:42:56.604Z,20.90
2018-09-09T09:43:56.573Z,23.50
2018-09-09T09:44:56.681Z,18.90
2018-09-09T09:45:56.574Z,17.10
2018-09-09T09:46:56.483Z,13.40
2018-09-09T09:47:56.433Z,15.70
2018-09-09T09:48:56.411Z,16.30
2018-09-09T09:50:56.325Z,18.60
2018-09-09T09:51:56.285Z,16.60
2018-09-09T09:52:56.253Z,14.00
2018-09-09T09:53:56.214Z,20.00
2018-09-09T09:54:56.238Z,14.70
2018-09-09T09:55:56.245Z,12.90
2018-09-09T09:56:56.110Z,26.80
2018-09-09T09:57:56.078Z,11.50
2018-09-09T09:58:56.042Z,15.40
2018-09-09T09:59:56.010Z,18.40
2018-09-09T10:00:55.971Z,10.90
2018-09-09T10:01:56.134Z,14.60
2018-09-09T10:02:55.947Z,28.90
2018-09-09T10:03:55.867Z,18.40
2018-09-09T10:04:55.835Z,24.30
2018-09-09T10:05:55.807Z,14.40
2018-09-09T10:06:55.769Z,20.20
2018-09-09T10:07:55.728Z,20.70
2018-09-09T10:08:55.768Z,15.00
2018-09-09T10:09:55.661Z,15.90
2018-09-09T10:10:55.634Z,10.00
2018-09-09T10:11:55.597Z,14.70
2018-09-09T10:12:55.730Z,13.10
2018-09-09T10:13:55.535Z,15.70
2018-09-09T10:14:55.512Z,14.00
2018-09-09T10:15:55.460Z,15.20
2018-09-09T10:16:55.426Z,14.40
2018-09-09T10:17:55.389Z,11.70
2018-09-09T10:18:55.353Z,11.50
2018-09-09T10:19:55.323Z,12.10
2018-09-09T10:20:55.289Z,11.70
2018-09-09T10:21:55.257Z,13.00
2018-09-09T10:22:55.221Z,22.10
2018-09-09T10:23:55.257Z,12.80
2018-09-09T10:24:55.160Z,10.60
2018-09-09T10:25:55.119Z,13.90
2018-09-09T10:26:55.093Z,15.50
2018-09-09T10:27:55.070Z,24.90
2018-09-09T10:28:55.024Z,14.70
2018-09-09T10:29:55.003Z,13.60
2018-09-09T10:30:54.951Z,14.00
2018-09-09T10:31:54.916Z,11.00
2018-09-09T10:32:54.929Z,15.20
2018-09-09T10:33:54.851Z,15.10
2018-09-09T10:34:54.827Z,14.80
2018-09-09T10:35:54.788Z,13.50
2018-09-09T10:36:54.751Z,11.80
2018-09-09T10:37:54.717Z,10.40
2018-09-09T10:38:54.687Z,12.10
2018-09-09T10:39:54.650Z,12.40
2018-09-09T10:40:54.628Z,10.90
2018-09-09T10:41:54.592Z,8.20
2018-09-09T10:42:54.557Z,12.50
2018-09-09T10:43:54.529Z,17.70
2018-09-09T10:44:54.497Z,14.60
2018-09-09T10:45:54.485Z,13.90
2018-09-09T10:46:54.502Z,10.10
2018-09-09T10:47:54.391Z,8.30
2018-09-09T10:48:54.354Z,9.20
2018-09-09T10:49:54.326Z,10.50
2018-09-09T10:50:54.287Z,10.10
2018-09-09T10:51:54.259Z,9.60
2018-09-09T10:52:54.222Z,13.60
2018-09-09T10:53:54.199Z,9.00
2018-09-09T10:54:54.360Z,8.70
2018-09-09T10:55:54.124Z,10.20
2018-09-09T10:56:54.093Z,13.30
2018-09-09T10:57:54.066Z,7.70
2018-09-09T10:58:54.128Z,8.30
2018-09-09T10:59:53.994Z,9.10
2018-09-09T11:00:54.059Z,13.10
2018-09-09T11:01:53.939Z,14.50
2018-09-09T11:02:53.900Z,21.60
2018-09-09T11:03:53.866Z,18.20
2018-09-09T11:04:53.837Z,12.60
2018-09-09T11:05:53.801Z,13.50
2018-09-09T11:06:53.834Z,13.40
2018-09-09T11:07:53.742Z,11.90
2018-09-09T11:08:53.714Z,11.00
2018-09-09T11:09:53.671Z,12.20
2018-09-09T11:10:53.639Z,7.90
2018-09-09T11:11:53.605Z,11.00
2018-09-09T11:12:53.624Z,9.70
2018-09-09T11:13:53.547Z,7.90
2018-09-09T11:14:53.514Z,9.50
2018-09-09T11:15:53.479Z,12.80
2018-09-09T11:16:53.455Z,9.70
2018-09-09T11:17:53.419Z,6.50
2018-09-09T11:18:53.441Z,9.20
2018-09-09T11:19:53.414Z,7.00
2018-09-09T11:20:53.323Z,10.30
2018-09-09T11:21:53.445Z,9.70
2018-09-09T11:22:53.258Z,8.40
2018-09-09T11:23:53.225Z,7.80
2018-09-09T11:24:53.195Z,8.40
2018-09-09T11:25:53.205Z,10.20
2018-09-09T11:26:53.200Z,11.80
2018-09-09T11:27:53.428Z,8.90
2018-09-09T11:28:53.070Z,12.10
2018-09-09T11:29:53.091Z,10.30
2018-09-09T11:30:53.023Z,12.50
2018-09-09T11:31:53.055Z,13.00
2018-09-09T11:32:52.963Z,6.70
2018-09-09T11:33:53.076Z,11.40
2018-09-09T11:34:52.892Z,30.50
2018-09-09T11:35:52.856Z,17.90
2018-09-09T11:36:52.866Z,27.80
2018-09-09T11:37:52.786Z,21.30
2018-09-09T11:38:52.755Z,34.70
2018-09-09T11:39:52.724Z,33.20
2018-09-09T11:40:52.696Z,20.50
2018-09-09T11:41:52.681Z,27.50
2018-09-09T11:42:52.633Z,23.10
2018-09-09T11:43:52.612Z,21.00
2018-09-09T11:44:52.774Z,14.50
2018-09-09T11:45:52.547Z,13.40
2018-09-09T11:46:52.596Z,20.70
2018-09-09T11:47:52.488Z,35.40
2018-09-09T11:48:52.478Z,21.90
2018-09-09T11:49:52.433Z,17.60
2018-09-09T11:50:52.398Z,13.50
2018-09-09T11:51:52.371Z,16.20
2018-09-09T11:52:52.371Z,13.20
2018-09-09T11:53:52.319Z,19.80
2018-09-09T11:54:52.288Z,15.70
2018-09-09T11:55:52.259Z,31.70
2018-09-09T11:56:52.231Z,27.10
2018-09-09T11:57:52.205Z,27.40
2018-09-09T11:58:52.176Z,19.90
2018-09-09T11:59:52.149Z,29.00
2018-09-09T12:00:52.124Z,19.50
2018-09-09T12:01:52.147Z,16.70
2018-09-09T12:02:52.129Z,21.70
2018-09-09T12:03:52.055Z,27.80
2018-09-09T12:04:52.018Z,23.50
2018-09-09T12:05:51.993Z,14.90
2018-09-09T12:06:51.964Z,14.30
2018-09-09T12:07:51.934Z,19.70
2018-09-09T12:08:51.911Z,18.10
2018-09-09T12:09:51.906Z,32.50
2018-09-09T12:10:51.931Z,18.50
2018-09-09T12:11:51.840Z,18.60
2018-09-09T12:12:51.819Z,15.90
2018-09-09T12:13:51.797Z,12.30
2018-09-09T12:14:51.785Z,13.40
2018-09-09T12:15:51.745Z,18.70
2018-09-09T12:16:51.717Z,17.80
2018-09-09T12:17:51.706Z,9.20
2018-09-09T12:18:51.679Z,13.00
2018-09-09T12:19:51.643Z,13.40
2018-09-09T12:20:51.622Z,10.10
2018-09-09T12:21:51.790Z,9.90
2018-09-09T12:22:51.565Z,5.20
2018-09-09T12:23:51.567Z,11.20
2018-09-09T12:24:51.601Z,10.40
2018-09-09T12:25:51.550Z,20.80
2018-09-09T12:26:51.668Z,20.00
2018-09-09T12:27:51.637Z,13.30
2018-09-09T12:28:51.432Z,12.30
2018-09-09T12:29:51.405Z,14.40
2018-09-09T12:30:51.502Z,9.10
2018-09-09T12:31:51.467Z,6.20
2018-09-09T12:32:51.709Z,10.00
2018-09-09T12:33:51.366Z,11.00
2018-09-09T12:34:51.306Z,10.50
2018-09-09T12:35:51.285Z,10.00
2018-09-09T12:36:51.280Z,5.80
2018-09-09T12:37:51.310Z,11.90
2018-09-09T12:38:51.392Z,8.60
2018-09-09T12:39:51.210Z,13.20
2018-09-09T12:40:51.288Z,8.00
2018-09-09T12:41:51.146Z,10.30
2018-09-09T12:42:51.150Z,7.10
2018-09-09T12:43:51.111Z,10.20
2018-09-09T12:44:51.338Z,4.50
2018-09-09T12:45:51.072Z,8.10
2018-09-09T12:46:51.066Z,16.70
2018-09-09T12:47:51.038Z,12.70
2018-09-09T12:48:50.997Z,17.30
2018-09-09T12:49:51.244Z,11.40
2018-09-09T12:50:50.978Z,17.60
2018-09-09T12:51:50.947Z,8.30
2018-09-09T12:52:51.156Z,11.40
2018-09-09T12:53:50.914Z,16.40
2018-09-09T12:54:50.863Z,12.20
2018-09-09T12:55:50.847Z,7.50
2018-09-09T12:56:50.829Z,14.50
2018-09-09T12:57:50.814Z,12.40
2018-09-09T12:58:50.815Z,20.70
2018-09-09T12:59:50.770Z,16.40
2018-09-09T13:00:50.745Z,11.10
2018-09-09T13:01:50.726Z,14.00
2018-09-09T13:02:50.695Z,6.40
2018-09-09T13:03:50.686Z,12.10
2018-09-09T13:04:50.648Z,4.20
2018-09-09T13:05:50.778Z,9.20
2018-09-09T13:06:50.620Z,11.70
2018-09-09T13:07:50.602Z,6.60
2018-09-09T13:08:50.576Z,6.40
2018-09-09T13:09:50.540Z,8.10
2018-09-09T13:10:50.519Z,9.00
2018-09-09T13:11:50.490Z,13.10